Terminal Aerodrome Forecast
Issued by NWS

Current Version | Previous Version | Text Only | Print | Product List | Glossary On
Versions: 1 2 3 4 5 6 7 8 9 10 11 12
000
FTUS45 KTFX 261700
TAFHLN
TAF
KHLN 261725Z 2618/2718 26006KT 6SM -SN OVC035
      TEMPO 2618/2622 1SM -SN BR OVC015
     FM262200 VRB06KT P6SM BKN090
     FM270300 VRB06KT P6SM SCT150
     FM270600 VRB06KT P6SM BKN150=

USA.gov is the U.S. government's official web portal to all federal, state and local government web resources and services.